createdAt,value
2022-10-22T00:00:37.845Z,13.69
2022-10-22T00:03:39.296Z,13.69
2022-10-22T00:06:40.849Z,13.69
2022-10-22T00:09:42.220Z,13.68
2022-10-22T00:12:43.621Z,13.68
2022-10-22T00:15:45.053Z,13.70
2022-10-22T00:18:46.425Z,13.71
2022-10-22T00:21:47.793Z,13.69
2022-10-22T00:24:49.149Z,13.68
2022-10-22T00:27:50.521Z,13.65
2022-10-22T00:30:59.965Z,13.58
2022-10-22T00:34:01.837Z,13.52
2022-10-22T00:37:03.299Z,13.42
2022-10-22T00:40:05.095Z,13.34
2022-10-22T00:43:06.604Z,13.22
2022-10-22T00:46:07.946Z,13.14
2022-10-22T00:49:09.347Z,13.05
2022-10-22T00:52:11.578Z,12.99
2022-10-22T00:55:14.145Z,12.93
2022-10-22T00:58:16.185Z,12.87
2022-10-22T01:01:22.540Z,12.84
2022-10-22T01:04:24.294Z,12.78
2022-10-22T01:07:25.959Z,12.73
2022-10-22T01:10:55.071Z,12.65
2022-10-22T01:14:23.622Z,12.63
2022-10-22T01:17:34.992Z,12.64
2022-10-22T01:20:51.195Z,12.61
2022-10-22T01:24:20.479Z,12.55
2022-10-22T01:27:34.948Z,12.47
2022-10-22T01:30:38.257Z,12.41
2022-10-22T01:33:40.219Z,12.19
2022-10-22T01:36:43.783Z,12.31
2022-10-22T01:39:47.502Z,12.30
2022-10-22T01:43:15.284Z,12.21
2022-10-22T01:46:18.141Z,12.18
2022-10-22T01:49:30.346Z,12.14
2022-10-22T01:53:08.749Z,12.07
2022-10-22T01:56:16.608Z,12.05
2022-10-22T01:59:26.805Z,12.04
2022-10-22T02:05:59.843Z,11.99
2022-10-22T02:09:03.200Z,11.92
2022-10-22T02:12:07.052Z,11.83
2022-10-22T02:15:11.462Z,11.81
2022-10-22T02:18:15.230Z,11.78
2022-10-22T02:21:16.819Z,11.76
2022-10-22T02:24:18.914Z,11.75
2022-10-22T02:27:31.706Z,11.73
2022-10-22T02:30:35.674Z,11.71
2022-10-22T02:33:42.210Z,11.71
2022-10-22T02:36:48.092Z,11.69
2022-10-22T02:39:52.902Z,11.67
2022-10-22T02:42:54.303Z,11.65
2022-10-22T02:45:55.678Z,11.66
2022-10-22T02:48:57.010Z,11.70
2022-10-22T02:51:58.326Z,11.73
2022-10-22T02:54:59.647Z,11.73
2022-10-22T02:58:00.959Z,11.72
2022-10-22T03:01:02.448Z,11.71
2022-10-22T03:04:04.199Z,11.71
2022-10-22T03:07:05.608Z,11.67
2022-10-22T03:10:07.458Z,11.65
2022-10-22T03:13:08.903Z,11.61
2022-10-22T03:16:10.253Z,11.57
2022-10-22T03:19:11.571Z,11.51
2022-10-22T03:22:23.436Z,11.46
2022-10-22T03:25:27.492Z,11.40
2022-10-22T03:28:30.667Z,11.37
2022-10-22T03:31:32.040Z,11.35
2022-10-22T03:34:33.432Z,11.33
2022-10-22T03:37:36.032Z,11.33
2022-10-22T03:40:37.920Z,11.30
2022-10-22T03:43:39.477Z,11.35
2022-10-22T03:46:40.876Z,11.35
2022-10-22T03:49:42.228Z,11.33
2022-10-22T03:52:43.553Z,11.33
2022-10-22T03:55:44.878Z,11.34
2022-10-22T03:58:46.214Z,11.34
2022-10-22T04:01:47.558Z,11.35
2022-10-22T04:04:48.926Z,11.34
2022-10-22T04:07:50.269Z,11.30
2022-10-22T04:10:51.865Z,11.24
2022-10-22T04:13:53.213Z,11.15
2022-10-22T04:16:54.605Z,11.13
2022-10-22T04:19:55.970Z,11.11
2022-10-22T04:22:57.282Z,10.94
2022-10-22T04:26:00.054Z,10.81
2022-10-22T04:29:01.567Z,10.75
2022-10-22T04:32:02.910Z,10.72
2022-10-22T04:35:04.762Z,10.71
2022-10-22T04:38:06.122Z,10.61
2022-10-22T04:41:19.355Z,10.53
2022-10-22T04:44:20.686Z,10.50
2022-10-22T04:47:22.195Z,10.53
2022-10-22T04:50:23.543Z,10.52
2022-10-22T04:53:27.000Z,10.46
2022-10-22T04:56:30.154Z,10.44
2022-10-22T04:59:31.483Z,10.45
2022-10-22T05:02:32.847Z,10.50
2022-10-22T05:05:34.171Z,10.57
2022-10-22T05:08:36.078Z,10.62
2022-10-22T05:11:38.800Z,10.67
2022-10-22T05:14:43.966Z,10.66
2022-10-22T05:17:46.218Z,10.68
2022-10-22T05:20:47.545Z,10.64
2022-10-22T05:23:50.343Z,10.60
2022-10-22T05:26:56.856Z,10.57
2022-10-22T05:29:58.296Z,10.56
2022-10-22T05:32:59.692Z,10.56
2022-10-22T05:36:02.119Z,10.55
2022-10-22T05:39:03.965Z,10.52
2022-10-22T05:42:05.360Z,10.54
2022-10-22T05:45:06.912Z,10.52
2022-10-22T05:48:09.473Z,10.52
2022-10-22T05:51:13.077Z,10.51
2022-10-22T05:54:19.601Z,10.49
2022-10-22T05:57:20.938Z,10.45
2022-10-22T06:00:22.277Z,10.45
2022-10-22T06:03:23.585Z,10.45
2022-10-22T06:06:30.108Z,10.42
2022-10-22T06:12:42.909Z,10.35
2022-10-22T06:15:44.486Z,10.35
2022-10-22T06:18:45.934Z,10.34
2022-10-22T06:21:48.409Z,10.33
2022-10-22T06:24:49.742Z,10.32
2022-10-22T06:27:51.070Z,10.34
2022-10-22T06:30:52.431Z,10.35
2022-10-22T06:33:54.223Z,10.33
2022-10-22T06:36:55.710Z,10.31
2022-10-22T06:39:57.047Z,10.29
2022-10-22T06:43:01.694Z,10.32
2022-10-22T06:46:05.861Z,10.35
2022-10-22T06:49:07.248Z,10.42
2022-10-22T06:52:08.599Z,10.46
2022-10-22T06:55:10.499Z,10.52
2022-10-22T06:58:11.844Z,10.56
2022-10-22T07:01:14.594Z,10.61
2022-10-22T07:04:16.438Z,10.65
2022-10-22T07:07:17.974Z,10.70
2022-10-22T07:10:19.764Z,10.75
2022-10-22T07:13:22.443Z,10.77
2022-10-22T07:16:28.115Z,10.81
2022-10-22T07:19:33.919Z,10.86
2022-10-22T07:22:35.278Z,10.94
2022-10-22T07:25:36.684Z,11.00
2022-10-22T07:28:38.199Z,11.12
2022-10-22T07:31:39.560Z,11.27
2022-10-22T07:34:43.138Z,11.41
2022-10-22T07:37:45.394Z,11.61
2022-10-22T07:40:46.728Z,11.74
2022-10-22T07:43:48.142Z,11.96
2022-10-22T07:46:49.464Z,12.15
2022-10-22T07:49:50.808Z,12.32
2022-10-22T07:52:53.831Z,12.49
2022-10-22T07:55:57.641Z,12.64
2022-10-22T07:58:59.096Z,12.75
2022-10-22T08:02:00.571Z,12.85
2022-10-22T08:05:01.926Z,12.99
2022-10-22T08:08:03.320Z,13.10
2022-10-22T08:11:04.752Z,13.23
2022-10-22T08:14:06.101Z,13.38
2022-10-22T08:17:07.444Z,13.47
2022-10-22T08:20:09.210Z,13.57
2022-10-22T08:23:10.634Z,13.68
2022-10-22T08:26:11.991Z,13.81
2022-10-22T08:29:13.354Z,13.92
2022-10-22T08:32:14.973Z,14.04
2022-10-22T08:35:17.665Z,14.14
2022-10-22T08:38:19.433Z,14.24
2022-10-22T08:41:23.111Z,14.26
2022-10-22T08:44:45.456Z,14.24
2022-10-22T08:48:26.691Z,14.37
2022-10-22T08:51:32.803Z,14.59
2022-10-22T08:54:56.013Z,14.76
2022-10-22T08:58:03.894Z,14.94
2022-10-22T09:01:14.863Z,14.92
2022-10-22T09:04:28.727Z,15.14
2022-10-22T09:07:30.099Z,15.48
2022-10-22T09:10:36.859Z,15.81
2022-10-22T09:13:39.988Z,15.82
2022-10-22T09:16:59.993Z,16.02
2022-10-22T09:20:13.359Z,16.20
2022-10-22T09:23:20.663Z,16.34
2022-10-22T09:26:22.044Z,16.50
2022-10-22T09:29:31.196Z,16.69
2022-10-22T09:32:32.780Z,16.61
2022-10-22T09:35:46.727Z,16.62
2022-10-22T09:38:51.269Z,16.88
2022-10-22T09:41:52.697Z,16.96
2022-10-22T09:44:59.437Z,16.86
2022-10-22T09:48:18.543Z,16.78
2022-10-22T09:51:48.065Z,16.65
2022-10-22T09:54:52.419Z,16.69
2022-10-22T09:57:56.678Z,16.83
2022-10-22T10:01:00.589Z,17.19
2022-10-22T10:04:13.474Z,17.37
2022-10-22T10:07:22.024Z,17.50
2022-10-22T10:10:41.793Z,17.75
2022-10-22T10:13:52.250Z,17.81
2022-10-22T10:17:01.671Z,17.92
2022-10-22T10:20:15.290Z,17.85
2022-10-22T10:23:36.184Z,18.02
2022-10-22T10:26:48.094Z,18.06
2022-10-22T10:29:58.574Z,18.29
2022-10-22T10:33:22.010Z,18.43
2022-10-22T10:36:27.330Z,18.42
2022-10-22T10:39:41.611Z,18.41
2022-10-22T10:42:49.246Z,18.45
2022-10-22T10:45:59.555Z,18.49
2022-10-22T10:49:19.039Z,18.60
2022-10-22T10:52:31.760Z,18.44
2022-10-22T10:55:41.925Z,18.30
2022-10-22T10:59:02.949Z,18.23
2022-10-22T11:02:10.286Z,17.97
2022-10-22T11:05:32.146Z,17.93
2022-10-22T11:08:38.544Z,17.94
2022-10-22T11:11:47.207Z,17.89
2022-10-22T11:15:11.117Z,17.83
2022-10-22T11:18:37.456Z,17.89
2022-10-22T11:21:45.640Z,18.01
2022-10-22T11:24:56.380Z,18.09
2022-10-22T11:28:13.265Z,18.25
2022-10-22T11:31:17.327Z,18.67
2022-10-22T11:34:39.637Z,18.89
2022-10-22T11:37:45.499Z,19.03
2022-10-22T11:41:00.317Z,18.91
2022-10-22T11:44:22.841Z,18.81
2022-10-22T11:47:25.827Z,18.82
2022-10-22T11:50:28.337Z,18.59
2022-10-22T11:53:35.326Z,18.63
2022-10-22T11:56:38.655Z,18.68
2022-10-22T11:59:47.289Z,18.65
2022-10-22T12:03:03.046Z,18.58
2022-10-22T12:06:10.339Z,18.18
2022-10-22T12:09:12.756Z,18.00
2022-10-22T12:12:15.633Z,17.88
2022-10-22T12:15:27.436Z,17.81
2022-10-22T12:18:42.538Z,17.88
2022-10-22T12:21:48.717Z,17.93
2022-10-22T12:24:53.795Z,17.84
2022-10-22T12:27:58.574Z,17.73
2022-10-22T12:30:59.934Z,17.72
2022-10-22T12:34:01.443Z,17.83
2022-10-22T12:37:04.483Z,17.90
2022-10-22T12:40:19.636Z,17.61
2022-10-22T12:43:29.743Z,17.92
2022-10-22T12:46:34.513Z,18.00
2022-10-22T12:49:42.570Z,18.04
2022-10-22T12:52:44.056Z,17.97
2022-10-22T12:55:52.160Z,18.01
2022-10-22T12:59:00.278Z,17.96
2022-10-22T13:02:02.444Z,17.87
2022-10-22T13:05:14.788Z,17.86
2022-10-22T13:11:34.696Z,18.02
2022-10-22T13:14:38.071Z,18.19
2022-10-22T13:17:41.596Z,18.12
2022-10-22T13:20:50.696Z,17.92
2022-10-22T13:24:03.641Z,17.86
2022-10-22T13:27:09.346Z,17.74
2022-10-22T13:30:19.429Z,17.75
2022-10-22T13:33:39.465Z,17.74
2022-10-22T13:36:40.841Z,17.69
2022-10-22T13:39:42.190Z,17.70
2022-10-22T13:42:43.895Z,17.73
2022-10-22T13:45:47.670Z,17.93
2022-10-22T13:48:50.843Z,17.96
2022-10-22T13:51:52.256Z,17.84
2022-10-22T13:54:53.589Z,17.85
2022-10-22T13:58:10.176Z,17.84
2022-10-22T14:01:20.982Z,17.83
2022-10-22T14:04:22.375Z,17.88
2022-10-22T14:07:23.731Z,17.92
2022-10-22T14:10:25.622Z,17.92
2022-10-22T14:13:26.991Z,17.88
2022-10-22T14:16:28.944Z,17.78
2022-10-22T14:19:30.624Z,17.77
2022-10-22T14:22:32.015Z,17.72
2022-10-22T14:25:33.370Z,17.60
2022-10-22T14:28:41.356Z,17.55
2022-10-22T14:31:53.209Z,17.47
2022-10-22T14:34:54.543Z,17.43
2022-10-22T14:37:55.888Z,17.34
2022-10-22T14:40:59.296Z,17.26
2022-10-22T14:44:00.656Z,17.17
2022-10-22T14:47:02.061Z,17.05
2022-10-22T14:50:03.848Z,16.93
2022-10-22T14:53:05.254Z,16.88
2022-10-22T14:56:06.904Z,16.94
2022-10-22T14:59:08.260Z,16.94
2022-10-22T15:02:12.564Z,16.89
2022-10-22T15:05:14.958Z,16.84
2022-10-22T15:08:16.341Z,16.79
2022-10-22T15:11:17.689Z,16.81
2022-10-22T15:14:19.077Z,16.82
2022-10-22T15:17:20.553Z,16.77
2022-10-22T15:20:21.873Z,16.64
2022-10-22T15:23:23.289Z,16.59
2022-10-22T15:26:24.706Z,16.56
2022-10-22T15:29:26.123Z,16.52
2022-10-22T15:32:28.007Z,16.47
2022-10-22T15:35:29.377Z,16.43
2022-10-22T15:41:37.727Z,16.29
2022-10-22T15:44:39.092Z,16.19
2022-10-22T15:47:40.763Z,16.15
2022-10-22T15:50:42.311Z,16.08
2022-10-22T15:53:44.245Z,16.05
2022-10-22T15:56:46.257Z,16.02
2022-10-22T15:59:47.757Z,16.00
2022-10-22T16:02:49.156Z,15.95
2022-10-22T16:05:51.870Z,15.94
2022-10-22T16:08:54.032Z,15.91
2022-10-22T16:11:55.890Z,15.86
2022-10-22T16:14:57.235Z,15.86
2022-10-22T16:17:58.580Z,15.86
2022-10-22T16:20:59.917Z,15.82
2022-10-22T16:24:05.998Z,15.78
2022-10-22T16:27:09.468Z,15.72
2022-10-22T16:30:11.303Z,15.66
2022-10-22T16:33:12.640Z,15.65
2022-10-22T16:36:17.108Z,15.68
2022-10-22T16:39:18.474Z,15.64
2022-10-22T16:42:19.804Z,15.59
2022-10-22T16:45:21.159Z,15.58
2022-10-22T16:48:22.580Z,15.44
2022-10-22T16:51:26.380Z,15.36
2022-10-22T16:54:27.876Z,15.25
2022-10-22T16:57:29.276Z,15.19
2022-10-22T17:00:30.965Z,15.15
2022-10-22T17:03:32.314Z,15.15
2022-10-22T17:06:33.687Z,15.10
2022-10-22T17:09:35.117Z,15.06
2022-10-22T17:12:36.709Z,15.00
2022-10-22T17:15:38.061Z,14.92
2022-10-22T17:18:40.517Z,14.86
2022-10-22T17:21:42.581Z,14.76
2022-10-22T17:24:43.970Z,14.68
2022-10-22T17:27:45.413Z,14.62
2022-10-22T17:30:46.778Z,14.52
2022-10-22T17:33:49.825Z,14.41
2022-10-22T17:36:51.103Z,14.07
2022-10-22T17:39:52.532Z,14.21
2022-10-22T17:42:53.906Z,14.24
2022-10-22T17:46:04.432Z,14.24
2022-10-22T17:49:12.071Z,14.21
2022-10-22T17:52:14.379Z,14.13
2022-10-22T17:55:15.771Z,14.08
2022-10-22T17:58:17.127Z,14.10
2022-10-22T18:01:28.119Z,14.10
2022-10-22T18:04:31.312Z,14.14
2022-10-22T18:07:32.596Z,13.93
2022-10-22T18:10:39.764Z,14.14
2022-10-22T18:13:41.359Z,14.22
2022-10-22T18:16:42.713Z,14.27
2022-10-22T18:19:44.037Z,14.30
2022-10-22T18:22:45.384Z,14.31
2022-10-22T18:25:46.918Z,14.31
2022-10-22T18:28:48.725Z,14.30
2022-10-22T18:31:50.064Z,14.29
2022-10-22T18:34:51.398Z,14.31
2022-10-22T18:37:52.697Z,14.27
2022-10-22T18:40:54.041Z,14.27
2022-10-22T18:43:58.193Z,14.28
2022-10-22T18:46:59.522Z,14.26
2022-10-22T18:50:00.853Z,14.22
2022-10-22T18:53:02.230Z,14.13
2022-10-22T18:56:08.734Z,14.05
2022-10-22T18:59:28.402Z,13.92
2022-10-22T19:02:29.730Z,13.85
2022-10-22T19:05:31.418Z,13.78
2022-10-22T19:08:34.426Z,13.71
2022-10-22T19:11:35.822Z,13.39
2022-10-22T19:14:37.195Z,13.52
2022-10-22T19:17:38.598Z,13.52
2022-10-22T19:20:39.990Z,13.60
2022-10-22T19:23:41.397Z,13.70
2022-10-22T19:26:42.943Z,13.71
2022-10-22T19:29:45.799Z,13.72
2022-10-22T19:32:47.427Z,13.67
2022-10-22T19:35:48.771Z,13.65
2022-10-22T19:38:50.546Z,13.58
2022-10-22T19:41:51.891Z,13.49
2022-10-22T19:44:53.215Z,13.41
2022-10-22T19:47:54.547Z,13.36
2022-10-22T19:51:08.897Z,13.28
2022-10-22T19:54:12.923Z,13.24
2022-10-22T19:57:17.179Z,13.19
2022-10-22T20:00:18.528Z,13.08
2022-10-22T20:03:20.809Z,13.02
2022-10-22T20:06:22.151Z,12.97
2022-10-22T20:09:23.622Z,12.92
2022-10-22T20:12:25.033Z,12.87
2022-10-22T20:15:26.421Z,12.83
2022-10-22T20:18:27.798Z,12.77
2022-10-22T20:21:29.581Z,12.72
2022-10-22T20:24:30.973Z,12.65
2022-10-22T20:27:32.293Z,12.62
2022-10-22T20:30:33.814Z,12.57
2022-10-22T20:33:35.207Z,12.55
2022-10-22T20:36:36.613Z,12.50
2022-10-22T20:39:38.001Z,12.44
2022-10-22T20:42:39.803Z,12.40
2022-10-22T20:45:41.405Z,12.37
2022-10-22T20:48:42.829Z,12.35
2022-10-22T20:51:44.534Z,12.32
2022-10-22T20:54:45.998Z,12.27
2022-10-22T20:57:48.068Z,12.18
2022-10-22T21:00:50.005Z,12.07
2022-10-22T21:03:52.371Z,12.01
2022-10-22T21:06:54.331Z,11.94
2022-10-22T21:09:55.682Z,11.93
2022-10-22T21:12:57.159Z,11.90
2022-10-22T21:15:59.252Z,11.87
2022-10-22T21:19:00.999Z,11.85
2022-10-22T21:22:02.913Z,11.86
2022-10-22T21:25:04.536Z,11.85
2022-10-22T21:28:05.856Z,11.82
2022-10-22T21:31:09.696Z,11.79
2022-10-22T21:34:11.527Z,11.75
2022-10-22T21:37:12.895Z,11.70
2022-10-22T21:40:14.240Z,11.67
2022-10-22T21:43:16.524Z,11.65
2022-10-22T21:46:20.501Z,11.59
2022-10-22T21:49:21.861Z,11.54
2022-10-22T21:52:23.328Z,11.50
2022-10-22T21:55:24.740Z,11.46
2022-10-22T21:58:26.137Z,11.44
2022-10-22T22:01:27.624Z,11.40
2022-10-22T22:04:29.092Z,11.36
2022-10-22T22:07:30.453Z,11.33
2022-10-22T22:10:31.839Z,11.33
2022-10-22T22:13:33.609Z,11.32
2022-10-22T22:16:35.280Z,11.31
2022-10-22T22:19:38.474Z,11.30
2022-10-22T22:22:40.155Z,11.25
2022-10-22T22:25:41.642Z,11.27
2022-10-22T22:28:43.017Z,11.23
2022-10-22T22:31:44.362Z,11.22
2022-10-22T22:34:45.682Z,11.20
2022-10-22T22:37:47.023Z,11.19
2022-10-22T22:40:48.381Z,11.16
2022-10-22T22:43:49.903Z,11.14
2022-10-22T22:46:51.254Z,11.13
2022-10-22T22:49:52.602Z,11.15
2022-10-22T22:52:53.971Z,11.10
2022-10-22T22:56:26.418Z,11.04
2022-10-22T22:59:27.806Z,11.08
2022-10-22T23:02:29.152Z,11.06
2022-10-22T23:05:30.495Z,11.06
2022-10-22T23:08:32.255Z,11.05
2022-10-22T23:11:33.860Z,11.08
2022-10-22T23:14:35.184Z,11.12
2022-10-22T23:20:42.764Z,11.05
2022-10-22T23:23:53.475Z,10.99
2022-10-22T23:26:56.208Z,10.94
2022-10-22T23:29:57.547Z,10.91
2022-10-22T23:32:58.879Z,10.87
2022-10-22T23:36:01.689Z,10.84
2022-10-22T23:39:09.616Z,10.77
2022-10-22T23:42:10.984Z,10.73
2022-10-22T23:45:12.345Z,10.70
2022-10-22T23:48:13.680Z,10.68
2022-10-22T23:51:17.158Z,10.65
2022-10-22T23:54:18.961Z,10.60
2022-10-22T23:57:20.352Z,10.56
